Time;durP1;ratioP1;P1;durP2;ratioP2;P2;SDS_P1;SDS_P2;PMS_P1;PMS_P2;Temp;Humidity;BMP_temperature;BMP_pressure;BME280_temperature;BME280_humidity;BME280_pressure;Samples;Min_cycle;Max_cycle;Signal;HPM_P1;HPM_P2
2021/03/04 00:00:49;;;;;;;147.07;108.93;;;;;;;;;;5032541;28;20989;-84
2021/03/04 00:03:15;;;;;;;146.40;108.57;;;;;;;;;;5030899;28;20420;-85
2021/03/04 00:05:41;;;;;;;156.93;114.63;;;;;;;;;;5030718;28;20390;-85
2021/03/04 00:08:07;;;;;;;146.88;109.68;;;;;;;;;;5031081;28;20416;-84
2021/03/04 00:10:33;;;;;;;149.70;110.85;;;;;;;;;;5032163;28;20866;-86
2021/03/04 00:12:59;;;;;;;151.27;112.13;;;;;;;;;;5030389;28;20402;-84
2021/03/04 00:15:27;;;;;;;149.15;110.43;;;;;;;;;;5031465;28;20464;-84
2021/03/04 00:17:53;;;;;;;148.45;108.35;;;;;;;;;;5035131;28;20431;-86
2021/03/04 00:20:21;;;;;;;154.32;114.20;;;;;;;;;;5035304;28;20369;-84
2021/03/04 00:22:47;;;;;;;156.35;113.93;;;;;;;;;;5035811;28;20378;-85
2021/03/04 00:25:14;;;;;;;160.43;113.55;;;;;;;;;;5033531;28;20453;-86
2021/03/04 00:27:40;;;;;;;166.43;118.20;;;;;;;;;;5031801;28;20954;-83
2021/03/04 00:30:08;;;;;;;156.05;114.63;;;;;;;;;;5031777;28;20369;-83
2021/03/04 00:32:34;;;;;;;158.57;114.80;;;;;;;;;;5029947;28;20406;-85
2021/03/04 00:35:00;;;;;;;149.80;111.82;;;;;;;;;;5029831;28;20385;-83
2021/03/04 00:37:26;;;;;;;158.50;115.60;;;;;;;;;;5030822;28;20720;-84
2021/03/04 00:39:52;;;;;;;157.02;113.05;;;;;;;;;;5031123;28;20389;-85
2021/03/04 00:42:18;;;;;;;161.75;118.00;;;;;;;;;;5029446;28;20505;-84
2021/03/04 00:44:44;;;;;;;155.93;113.78;;;;;;;;;;5029637;28;20470;-83
2021/03/04 00:47:10;;;;;;;162.63;115.65;;;;;;;;;;5029593;28;20513;-84
2021/03/04 00:49:36;;;;;;;164.10;116.68;;;;;;;;;;5031143;28;20460;-84
2021/03/04 00:52:02;;;;;;;171.48;123.00;;;;;;;;;;5031536;28;20452;-85
2021/03/04 00:54:28;;;;;;;179.10;128.23;;;;;;;;;;5030944;28;20396;-83
2021/03/04 00:56:54;;;;;;;174.25;124.55;;;;;;;;;;5030188;28;20380;-84
2021/03/04 00:59:20;;;;;;;176.65;124.55;;;;;;;;;;5031374;28;20419;-84
2021/03/04 01:01:46;;;;;;;183.43;131.30;;;;;;;;;;5031295;28;20892;-84
2021/03/04 01:04:12;;;;;;;183.95;130.50;;;;;;;;;;5030163;28;20389;-85
2021/03/04 01:06:38;;;;;;;189.15;133.38;;;;;;;;;;5031065;28;20401;-83
2021/03/04 01:09:05;;;;;;;182.82;130.65;;;;;;;;;;5031132;28;20369;-83
2021/03/04 01:11:31;;;;;;;184.10;129.93;;;;;;;;;;5029819;28;20435;-84
2021/03/04 01:13:57;;;;;;;187.00;133.37;;;;;;;;;;5029291;28;20417;-83
2021/03/04 01:16:23;;;;;;;187.63;135.30;;;;;;;;;;5029275;28;20388;-83
2021/03/04 01:18:49;;;;;;;183.30;132.82;;;;;;;;;;5030616;28;20400;-85
2021/03/04 01:21:15;;;;;;;196.40;140.30;;;;;;;;;;5030214;28;20859;-85
2021/03/04 01:23:41;;;;;;;194.93;138.80;;;;;;;;;;5029348;28;20860;-84
2021/03/04 01:26:07;;;;;;;196.47;137.43;;;;;;;;;;5030817;28;20381;-84
2021/03/04 01:28:33;;;;;;;199.48;139.48;;;;;;;;;;5030688;28;20770;-87
2021/03/04 01:30:59;;;;;;;199.88;144.63;;;;;;;;;;5030770;28;20370;-83
2021/03/04 01:33:25;;;;;;;204.65;143.10;;;;;;;;;;5029366;28;20907;-84
2021/03/04 01:35:51;;;;;;;208.90;146.38;;;;;;;;;;5030349;28;20385;-86
2021/03/04 01:38:17;;;;;;;231.93;159.10;;;;;;;;;;5029016;28;20972;-85
2021/03/04 01:40:44;;;;;;;240.32;167.15;;;;;;;;;;5030060;28;20396;-85
2021/03/04 01:43:10;;;;;;;237.27;163.57;;;;;;;;;;5029771;28;20393;-84
2021/03/04 01:45:36;;;;;;;243.57;170.53;;;;;;;;;;5030179;28;20437;-83
2021/03/04 01:48:03;;;;;;;243.80;169.90;;;;;;;;;;5028910;28;20493;-85
2021/03/04 01:50:30;;;;;;;249.65;173.75;;;;;;;;;;5028183;28;20366;-85
2021/03/04 01:52:56;;;;;;;247.07;173.48;;;;;;;;;;5029995;28;20407;-84
2021/03/04 01:55:23;;;;;;;239.05;169.48;;;;;;;;;;5028741;28;20385;-83
2021/03/04 01:57:49;;;;;;;240.32;168.25;;;;;;;;;;5029819;28;20397;-84
2021/03/04 02:00:16;;;;;;;241.63;172.25;;;;;;;;;;5030424;28;20806;-84
2021/03/04 02:02:42;;;;;;;242.23;170.88;;;;;;;;;;5029466;28;20431;-84
2021/03/04 02:05:13;;;;;;;234.30;167.27;;;;;;;;;;5029268;28;20464;-84
2021/03/04 02:07:51;;;;;;;240.77;168.88;;;;;;;;;;5030352;28;20866;-84
2021/03/04 02:10:22;;;;;;;229.95;162.07;;;;;;;;;;5030471;28;20384;-84
2021/03/04 02:12:51;;;;;;;220.82;160.27;;;;;;;;;;5028446;28;20406;-84
2021/03/04 02:15:18;;;;;;;224.90;163.40;;;;;;;;;;5027882;28;20736;-83
2021/03/04 02:17:48;;;;;;;219.98;161.63;;;;;;;;;;5029219;28;20389;-83
2021/03/04 02:20:21;;;;;;;206.53;155.07;;;;;;;;;;5028378;28;20394;-84
2021/03/04 02:23:02;;;;;;;198.88;152.18;;;;;;;;;;5029289;28;20855;-85
2021/03/04 02:25:31;;;;;;;207.52;156.02;;;;;;;;;;5029424;28;20364;-85
2021/03/04 02:27:57;;;;;;;213.10;157.20;;;;;;;;;;5029100;28;20382;-84
2021/03/04 02:30:37;;;;;;;209.45;158.45;;;;;;;;;;5028125;28;20805;-86
2021/03/04 02:33:24;;;;;;;204.75;154.93;;;;;;;;;;5029279;28;20448;-84
2021/03/04 02:35:50;;;;;;;200.57;149.88;;;;;;;;;;5028431;28;20464;-87
2021/03/04 02:38:18;;;;;;;200.40;148.13;;;;;;;;;;5032682;28;20499;-84
2021/03/04 02:40:46;;;;;;;192.20;145.77;;;;;;;;;;5029093;28;20460;-85
2021/03/04 02:43:13;;;;;;;193.68;144.23;;;;;;;;;;5028194;28;20385;-85
2021/03/04 02:45:40;;;;;;;200.25;147.43;;;;;;;;;;5028251;28;20377;-85
2021/03/04 02:48:06;;;;;;;194.32;144.43;;;;;;;;;;5029592;28;20373;-85
2021/03/04 02:50:33;;;;;;;182.27;136.07;;;;;;;;;;5028821;28;20771;-85
2021/03/04 02:52:59;;;;;;;174.65;133.95;;;;;;;;;;5031586;28;20400;-84
2021/03/04 02:55:26;;;;;;;184.68;138.10;;;;;;;;;;5031040;28;20549;-84
2021/03/04 02:57:52;;;;;;;180.75;136.63;;;;;;;;;;5029235;28;20455;-82
2021/03/04 03:00:23;;;;;;;182.73;136.50;;;;;;;;;;5030149;28;20370;-83
2021/03/04 03:02:49;;;;;;;175.52;131.18;;;;;;;;;;5029272;28;21248;-85
2021/03/04 03:05:17;;;;;;;173.40;131.55;;;;;;;;;;5030216;28;20452;-86
2021/03/04 03:07:44;;;;;;;166.35;124.90;;;;;;;;;;5029733;28;20385;-86
2021/03/04 03:10:11;;;;;;;152.63;113.78;;;;;;;;;;5029848;28;20381;-86
2021/03/04 03:12:37;;;;;;;152.63;112.10;;;;;;;;;;5030955;28;20504;-86
2021/03/04 03:15:07;;;;;;;142.90;108.80;;;;;;;;;;5029395;28;20392;-85
2021/03/04 03:17:34;;;;;;;144.53;104.93;;;;;;;;;;5030572;28;20458;-84
2021/03/04 03:20:00;;;;;;;143.27;106.90;;;;;;;;;;5030082;28;20488;-85
2021/03/04 03:22:26;;;;;;;148.15;106.88;;;;;;;;;;5030973;28;20400;-84
2021/03/04 03:24:52;;;;;;;146.55;108.53;;;;;;;;;;5030171;28;20370;-85
2021/03/04 03:27:18;;;;;;;144.70;106.53;;;;;;;;;;5030167;28;20380;-85
2021/03/04 03:29:44;;;;;;;150.70;107.63;;;;;;;;;;5032904;28;20458;-83
2021/03/04 03:32:11;;;;;;;150.07;106.82;;;;;;;;;;5033922;28;20373;-84
2021/03/04 03:34:38;;;;;;;148.93;105.90;;;;;;;;;;5034273;28;21082;-85
2021/03/04 03:37:04;;;;;;;154.73;107.55;;;;;;;;;;5033077;28;20386;-84
2021/03/04 03:39:30;;;;;;;149.18;104.97;;;;;;;;;;5032585;28;20727;-85
2021/03/04 03:41:56;;;;;;;147.57;100.45;;;;;;;;;;5033531;28;20443;-83
2021/03/04 03:44:23;;;;;;;146.73;98.18;;;;;;;;;;5032786;28;20369;-83
2021/03/04 03:46:50;;;;;;;146.63;98.20;;;;;;;;;;5034005;28;20385;-85
2021/03/04 03:49:16;;;;;;;147.27;97.07;;;;;;;;;;5032447;28;20412;-84
2021/03/04 03:51:43;;;;;;;143.85;93.05;;;;;;;;;;5032565;28;20405;-85
2021/03/04 03:54:10;;;;;;;138.52;91.22;;;;;;;;;;5030948;28;20421;-85
2021/03/04 03:56:36;;;;;;;134.47;88.77;;;;;;;;;;5032399;28;20883;-84
2021/03/04 03:59:04;;;;;;;138.05;88.68;;;;;;;;;;5032250;28;20511;-82
2021/03/04 04:01:31;;;;;;;135.00;87.50;;;;;;;;;;5031867;28;20377;-83
2021/03/04 04:03:58;;;;;;;135.18;87.40;;;;;;;;;;5030451;28;20385;-85
2021/03/04 04:06:25;;;;;;;130.87;84.60;;;;;;;;;;5030772;28;20389;-84
2021/03/04 04:08:53;;;;;;;132.00;85.70;;;;;;;;;;5031133;28;20437;-84
2021/03/04 04:11:20;;;;;;;129.82;84.88;;;;;;;;;;5032066;28;20365;-84
2021/03/04 04:13:46;;;;;;;127.80;81.68;;;;;;;;;;5031909;28;20397;-84
2021/03/04 04:16:13;;;;;;;126.97;81.10;;;;;;;;;;5031732;28;20373;-86
2021/03/04 04:18:39;;;;;;;121.35;78.82;;;;;;;;;;5030195;28;20913;-83
2021/03/04 04:21:05;;;;;;;122.55;77.85;;;;;;;;;;5030573;28;20374;-84
2021/03/04 04:23:31;;;;;;;120.22;76.80;;;;;;;;;;5031817;28;20401;-84
2021/03/04 04:25:57;;;;;;;117.60;74.78;;;;;;;;;;5030378;28;20515;-84
2021/03/04 04:28:23;;;;;;;111.57;73.97;;;;;;;;;;5031697;28;20859;-85
2021/03/04 04:30:49;;;;;;;118.82;75.03;;;;;;;;;;5030059;28;20461;-84
2021/03/04 04:33:16;;;;;;;114.38;74.13;;;;;;;;;;5031391;28;20748;-84
2021/03/04 04:35:42;;;;;;;111.80;72.20;;;;;;;;;;5029840;28;20851;-84
2021/03/04 04:38:08;;;;;;;109.45;71.50;;;;;;;;;;5031157;28;20385;-83
2021/03/04 04:40:34;;;;;;;110.55;70.72;;;;;;;;;;5029228;28;20373;-83
2021/03/04 04:43:00;;;;;;;111.20;70.60;;;;;;;;;;5029662;28;20713;-84
2021/03/04 04:45:26;;;;;;;107.07;69.57;;;;;;;;;;5031113;28;20408;-85
2021/03/04 04:47:52;;;;;;;113.03;71.03;;;;;;;;;;5031182;28;20796;-84
2021/03/04 04:50:18;;;;;;;114.13;73.40;;;;;;;;;;5031040;28;20369;-85
2021/03/04 04:52:44;;;;;;;117.03;74.97;;;;;;;;;;5030944;28;20398;-85
2021/03/04 04:55:10;;;;;;;113.47;74.68;;;;;;;;;;5031100;28;20765;-84
2021/03/04 04:57:36;;;;;;;118.10;75.10;;;;;;;;;;5031250;28;20376;-83
2021/03/04 05:00:05;;;;;;;119.78;75.03;;;;;;;;;;5031451;28;20536;-84
2021/03/04 05:02:31;;;;;;;117.75;75.55;;;;;;;;;;5030148;28;20374;-85
2021/03/04 05:04:56;;;;;;;117.03;76.20;;;;;;;;;;5030966;28;20874;-84
2021/03/04 05:07:23;;;;;;;119.60;77.40;;;;;;;;;;5029685;28;20458;-84
2021/03/04 05:09:48;;;;;;;120.82;79.13;;;;;;;;;;5030764;28;20384;-84
2021/03/04 05:12:14;;;;;;;124.63;80.10;;;;;;;;;;5030931;28;20723;-84
2021/03/04 05:14:41;;;;;;;125.18;81.80;;;;;;;;;;5031124;28;20385;-85
2021/03/04 05:17:07;;;;;;;120.53;79.55;;;;;;;;;;5031468;28;20380;-84
2021/03/04 05:19:33;;;;;;;119.40;78.68;;;;;;;;;;5032281;28;20370;-83
2021/03/04 05:21:59;;;;;;;116.67;77.83;;;;;;;;;;5030202;28;20449;-84
2021/03/04 05:24:25;;;;;;;109.13;72.63;;;;;;;;;;5031126;28;20373;-85
2021/03/04 05:26:51;;;;;;;108.00;71.97;;;;;;;;;;5031751;28;20769;-86
2021/03/04 05:29:17;;;;;;;108.20;70.35;;;;;;;;;;5030359;28;20402;-85
2021/03/04 05:31:43;;;;;;;108.55;70.57;;;;;;;;;;5030481;28;20459;-84
2021/03/04 05:34:09;;;;;;;110.75;72.72;;;;;;;;;;5029271;28;20444;-85
2021/03/04 05:36:35;;;;;;;104.85;69.28;;;;;;;;;;5031039;28;20464;-84
2021/03/04 05:39:02;;;;;;;106.53;68.93;;;;;;;;;;5028556;28;20855;-84
2021/03/04 05:41:28;;;;;;;111.22;70.25;;;;;;;;;;5028860;28;20871;-84
2021/03/04 05:43:55;;;;;;;105.90;67.95;;;;;;;;;;5027736;28;20876;-84
2021/03/04 05:46:22;;;;;;;98.50;64.32;;;;;;;;;;5031849;28;20385;-85
2021/03/04 05:48:49;;;;;;;95.50;62.85;;;;;;;;;;5031949;28;20431;-83
2021/03/04 05:51:26;;;;;;;95.07;63.40;;;;;;;;;;5031904;28;20389;-84
2021/03/04 05:54:04;;;;;;;103.33;65.53;;;;;;;;;;5031777;28;20581;-84
2021/03/04 05:56:30;;;;;;;92.50;61.78;;;;;;;;;;5010996;28;20391;-88
2021/03/04 05:58:57;;;;;;;98.72;64.03;;;;;;;;;;5030486;28;20400;-83
2021/03/04 06:01:51;;;;;;;99.28;63.75;;;;;;;;;;5030406;28;20476;-85
2021/03/04 06:04:27;;;;;;;100.38;65.80;;;;;;;;;;5030706;28;20378;-84
2021/03/04 06:07:28;;;;;;;98.78;64.95;;;;;;;;;;5031587;28;20381;-84
2021/03/04 06:10:00;;;;;;;104.30;66.80;;;;;;;;;;5030167;28;20477;-86
2021/03/04 06:13:04;;;;;;;92.00;60.47;;;;;;;;;;5026883;28;20402;-85
2021/03/04 06:16:03;;;;;;;86.55;58.08;;;;;;;;;;5025535;28;20799;-86
2021/03/04 06:21:56;;;;;;;93.53;60.33;;;;;;;;;;5015972;28;20374;-85
2021/03/04 06:24:22;;;;;;;91.43;60.40;;;;;;;;;;5028722;28;20405;-82
2021/03/04 06:26:55;;;;;;;97.38;63.35;;;;;;;;;;5033384;28;20392;-82
2021/03/04 06:29:22;;;;;;;92.57;62.45;;;;;;;;;;5031524;28;20408;-83
2021/03/04 06:32:02;;;;;;;95.87;62.13;;;;;;;;;;5030758;28;20994;-82
2021/03/04 06:34:28;;;;;;;96.47;60.92;;;;;;;;;;5030362;28;20401;-82
2021/03/04 06:37:20;;;;;;;91.55;58.10;;;;;;;;;;5029378;28;20370;-83
2021/03/04 06:39:47;;;;;;;81.68;55.55;;;;;;;;;;5025456;28;20397;-83
2021/03/04 06:42:14;;;;;;;88.63;55.13;;;;;;;;;;5028316;28;20365;-83
2021/03/04 06:44:40;;;;;;;85.27;53.87;;;;;;;;;;5027558;28;21055;-82
2021/03/04 06:47:07;;;;;;;81.90;53.67;;;;;;;;;;5028439;28;20489;-82
2021/03/04 06:49:37;;;;;;;88.83;55.83;;;;;;;;;;5027763;28;20386;-83
2021/03/04 06:52:03;;;;;;;90.93;56.60;;;;;;;;;;5028103;28;20382;-83
2021/03/04 06:54:29;;;;;;;89.57;56.15;;;;;;;;;;5028567;28;20397;-82
2021/03/04 06:56:55;;;;;;;87.78;54.63;;;;;;;;;;5028768;28;20735;-82
2021/03/04 06:59:21;;;;;;;86.72;53.80;;;;;;;;;;5029169;28;21028;-85
2021/03/04 07:01:47;;;;;;;79.53;50.67;;;;;;;;;;5028844;28;20374;-83
2021/03/04 07:04:14;;;;;;;84.70;54.70;;;;;;;;;;5027890;28;20378;-83
2021/03/04 07:06:41;;;;;;;82.60;51.80;;;;;;;;;;5029442;28;20450;-86
2021/03/04 07:09:07;;;;;;;79.90;51.20;;;;;;;;;;5029071;28;20369;-84
2021/03/04 07:11:37;;;;;;;75.87;50.43;;;;;;;;;;5024749;28;20404;-88
2021/03/04 07:14:04;;;;;;;72.40;47.85;;;;;;;;;;5027164;28;20420;-86
2021/03/04 07:16:36;;;;;;;73.57;47.50;;;;;;;;;;5028543;28;20947;-89
2021/03/04 07:19:02;;;;;;;73.90;48.05;;;;;;;;;;5025624;28;21060;-85
2021/03/04 07:21:30;;;;;;;72.03;47.78;;;;;;;;;;5028161;28;20847;-85
2021/03/04 07:23:56;;;;;;;72.90;46.95;;;;;;;;;;5028549;28;20393;-86
2021/03/04 07:26:23;;;;;;;69.47;45.15;;;;;;;;;;5025888;28;20374;-88
2021/03/04 07:28:51;;;;;;;66.70;44.17;;;;;;;;;;5027861;28;20396;-89
2021/03/04 07:31:18;;;;;;;64.10;42.15;;;;;;;;;;5026729;28;20385;-86
2021/03/04 07:33:47;;;;;;;65.27;42.50;;;;;;;;;;5027179;28;20862;-86
2021/03/04 07:36:15;;;;;;;62.83;42.00;;;;;;;;;;5033325;28;20479;-86
2021/03/04 07:38:41;;;;;;;62.58;41.90;;;;;;;;;;5026675;28;20910;-84
2021/03/04 07:41:07;;;;;;;61.45;40.42;;;;;;;;;;5029275;28;20374;-85
2021/03/04 07:43:51;;;;;;;61.70;41.37;;;;;;;;;;5028021;28;20376;-84
2021/03/04 07:46:34;;;;;;;61.10;41.05;;;;;;;;;;5025837;28;20369;-85
2021/03/04 07:49:01;;;;;;;69.20;44.03;;;;;;;;;;5027043;28;20421;-84
2021/03/04 07:51:27;;;;;;;67.30;44.13;;;;;;;;;;5027984;28;20380;-83
2021/03/04 07:53:54;;;;;;;70.60;44.28;;;;;;;;;;5026894;28;20405;-84
2021/03/04 07:56:28;;;;;;;68.93;44.85;;;;;;;;;;5027122;28;20910;-84
2021/03/04 07:59:07;;;;;;;68.00;44.60;;;;;;;;;;5027501;28;20400;-84
2021/03/04 08:01:33;;;;;;;69.07;45.70;;;;;;;;;;5025213;28;20392;-84
2021/03/04 08:04:01;;;;;;;76.90;49.55;;;;;;;;;;5026701;28;20890;-87
2021/03/04 08:06:27;;;;;;;74.83;48.83;;;;;;;;;;5024219;28;20393;-83
2021/03/04 08:08:53;;;;;;;77.13;49.90;;;;;;;;;;5027360;28;20382;-85
2021/03/04 08:11:26;;;;;;;78.70;48.97;;;;;;;;;;5025689;28;20390;-85
2021/03/04 08:13:53;;;;;;;70.72;46.83;;;;;;;;;;5025031;28;20453;-85
2021/03/04 08:16:19;;;;;;;76.05;48.45;;;;;;;;;;5030415;28;20428;-85
2021/03/04 08:18:53;;;;;;;67.97;45.05;;;;;;;;;;5028967;28;20381;-85
2021/03/04 08:21:19;;;;;;;63.90;41.70;;;;;;;;;;5030504;28;20464;-84
2021/03/04 08:23:45;;;;;;;57.03;38.95;;;;;;;;;;5027247;28;20784;-84
2021/03/04 08:26:25;;;;;;;54.50;38.23;;;;;;;;;;5030850;28;20377;-85
2021/03/04 08:29:02;;;;;;;58.22;39.33;;;;;;;;;;5029502;28;20385;-84
2021/03/04 08:31:28;;;;;;;55.43;40.20;;;;;;;;;;5028526;28;20381;-84
2021/03/04 08:33:55;;;;;;;60.58;40.38;;;;;;;;;;5031530;28;21276;-84
2021/03/04 08:36:21;;;;;;;57.13;39.42;;;;;;;;;;5030356;28;20435;-84
2021/03/04 08:38:47;;;;;;;59.42;40.58;;;;;;;;;;5031970;28;20389;-85
2021/03/04 08:41:19;;;;;;;58.22;39.10;;;;;;;;;;5029028;28;20393;-84
2021/03/04 08:43:45;;;;;;;56.93;38.23;;;;;;;;;;5031444;28;20724;-85
2021/03/04 08:46:11;;;;;;;54.88;38.75;;;;;;;;;;5032447;28;20381;-86
2021/03/04 08:48:43;;;;;;;55.47;37.25;;;;;;;;;;5030166;28;20382;-84
2021/03/04 08:51:09;;;;;;;56.83;37.67;;;;;;;;;;5028318;28;20389;-86
2021/03/04 08:53:35;;;;;;;54.83;38.03;;;;;;;;;;5031118;28;20484;-85
2021/03/04 08:56:03;;;;;;;54.93;37.60;;;;;;;;;;5030823;28;20373;-84
2021/03/04 08:58:31;;;;;;;54.25;37.67;;;;;;;;;;5030425;28;20405;-86
2021/03/04 09:00:59;;;;;;;53.50;36.17;;;;;;;;;;5030814;28;20964;-84
2021/03/04 09:03:25;;;;;;;54.53;38.47;;;;;;;;;;5026385;28;20417;-85
2021/03/04 09:06:02;;;;;;;59.67;40.40;;;;;;;;;;5028510;28;20389;-85
2021/03/04 09:08:32;;;;;;;55.72;39.00;;;;;;;;;;5027722;28;20767;-84
2021/03/04 09:10:58;;;;;;;54.25;38.40;;;;;;;;;;5028661;28;20417;-85
2021/03/04 09:13:25;;;;;;;57.10;38.40;;;;;;;;;;5028086;28;20490;-85
2021/03/04 09:15:56;;;;;;;56.22;38.47;;;;;;;;;;5029045;28;20439;-85
2021/03/04 09:18:22;;;;;;;56.50;38.05;;;;;;;;;;5026403;28;20948;-84
2021/03/04 09:20:49;;;;;;;56.42;38.95;;;;;;;;;;5028228;28;20397;-84
2021/03/04 09:23:15;;;;;;;56.83;38.10;;;;;;;;;;5028349;28;20380;-83
2021/03/04 09:25:42;;;;;;;55.03;38.13;;;;;;;;;;5028670;28;20457;-83
2021/03/04 09:28:12;;;;;;;57.08;39.90;;;;;;;;;;5030110;28;20401;-88
2021/03/04 09:30:38;;;;;;;58.35;40.15;;;;;;;;;;5029243;28;20382;-84
2021/03/04 09:33:15;;;;;;;56.07;39.13;;;;;;;;;;5029481;28;20405;-84
2021/03/04 09:35:51;;;;;;;56.03;39.80;;;;;;;;;;5029541;28;20398;-85
2021/03/04 09:38:17;;;;;;;60.53;42.85;;;;;;;;;;5030320;28;20417;-84
2021/03/04 09:40:43;;;;;;;60.58;40.53;;;;;;;;;;5031299;28;20435;-84
2021/03/04 09:43:17;;;;;;;60.00;42.55;;;;;;;;;;5032363;28;20386;-84
2021/03/04 09:45:50;;;;;;;56.63;40.03;;;;;;;;;;5032267;28;20382;-84
2021/03/04 09:48:17;;;;;;;53.15;37.25;;;;;;;;;;5026958;28;20404;-84
2021/03/04 09:50:53;;;;;;;50.10;36.40;;;;;;;;;;5029218;28;20393;-85
2021/03/04 09:53:19;;;;;;;48.42;34.33;;;;;;;;;;5028379;28;20401;-83
2021/03/04 09:55:46;;;;;;;46.83;32.92;;;;;;;;;;5029109;28;20448;-84
2021/03/04 09:58:22;;;;;;;46.40;33.10;;;;;;;;;;5028682;28;20378;-84
2021/03/04 10:00:55;;;;;;;46.55;33.10;;;;;;;;;;5025067;28;21017;-84
2021/03/04 10:03:21;;;;;;;46.38;34.00;;;;;;;;;;5024510;28;20879;-84
2021/03/04 10:05:51;;;;;;;44.53;32.85;;;;;;;;;;5029145;28;20377;-84
2021/03/04 10:08:18;;;;;;;45.17;32.45;;;;;;;;;;5027460;28;20366;-85
2021/03/04 10:10:45;;;;;;;46.58;33.50;;;;;;;;;;5025563;28;20420;-84
2021/03/04 10:13:11;;;;;;;46.20;32.13;;;;;;;;;;5029896;28;20422;-84
2021/03/04 10:15:39;;;;;;;43.28;32.22;;;;;;;;;;5027272;28;20378;-83
2021/03/04 10:18:10;;;;;;;45.00;32.70;;;;;;;;;;5027444;28;20386;-86
2021/03/04 10:20:36;;;;;;;39.92;30.92;;;;;;;;;;5026208;28;20424;-86
2021/03/04 10:23:03;;;;;;;42.13;31.00;;;;;;;;;;5027814;28;20390;-82
2021/03/04 10:25:29;;;;;;;42.67;30.98;;;;;;;;;;5031222;28;20405;-84
2021/03/04 10:27:57;;;;;;;40.35;30.05;;;;;;;;;;5024395;28;20417;-83
2021/03/04 10:30:25;;;;;;;40.33;29.75;;;;;;;;;;5028385;28;20842;-84
2021/03/04 10:32:51;;;;;;;37.28;29.02;;;;;;;;;;5027494;28;20417;-84
2021/03/04 10:35:17;;;;;;;39.33;28.27;;;;;;;;;;5029256;28;20468;-84
2021/03/04 10:37:44;;;;;;;38.85;28.38;;;;;;;;;;5028213;28;20396;-83
2021/03/04 10:40:11;;;;;;;36.75;27.20;;;;;;;;;;5026845;28;20443;-81
2021/03/04 10:42:37;;;;;;;30.00;24.00;;;;;;;;;;5032130;28;20377;-82
2021/03/04 10:45:08;;;;;;;29.48;22.80;;;;;;;;;;5028815;28;20393;-83
2021/03/04 10:47:34;;;;;;;32.00;24.52;;;;;;;;;;5038150;28;20400;-83
2021/03/04 10:50:00;;;;;;;29.97;23.20;;;;;;;;;;5029746;28;20910;-83
2021/03/04 10:52:26;;;;;;;30.25;23.38;;;;;;;;;;5029666;28;20377;-86
2021/03/04 10:54:53;;;;;;;28.75;21.13;;;;;;;;;;5029084;28;20793;-85
2021/03/04 10:57:19;;;;;;;29.67;22.02;;;;;;;;;;5028659;28;21001;-84
2021/03/04 10:59:45;;;;;;;26.38;20.58;;;;;;;;;;5042937;28;20367;-83
2021/03/04 11:02:11;;;;;;;26.92;20.63;;;;;;;;;;5049646;28;20398;-83
2021/03/04 11:04:37;;;;;;;27.25;21.17;;;;;;;;;;5028407;28;20406;-85
2021/03/04 11:07:04;;;;;;;25.63;20.03;;;;;;;;;;5029089;28;20414;-82
2021/03/04 11:09:30;;;;;;;23.17;19.13;;;;;;;;;;5029763;28;20374;-85
2021/03/04 11:11:56;;;;;;;21.23;17.45;;;;;;;;;;5027682;28;20378;-82
2021/03/04 11:14:21;;;;;;;24.40;19.42;;;;;;;;;;5028549;28;20417;-84
2021/03/04 11:16:47;;;;;;;25.45;19.35;;;;;;;;;;5028989;28;20432;-83
2021/03/04 11:19:13;;;;;;;24.50;18.63;;;;;;;;;;5026548;28;20914;-83
2021/03/04 11:21:41;;;;;;;23.60;18.73;;;;;;;;;;5026229;28;20421;-82
2021/03/04 11:24:07;;;;;;;23.27;18.38;;;;;;;;;;5028734;28;20436;-84
2021/03/04 11:26:37;;;;;;;19.35;16.40;;;;;;;;;;5028874;28;20399;-83
2021/03/04 11:29:04;;;;;;;20.40;17.33;;;;;;;;;;5027460;28;20432;-82
2021/03/04 11:31:30;;;;;;;19.23;16.27;;;;;;;;;;5028386;28;20381;-84
2021/03/04 11:33:56;;;;;;;20.80;16.95;;;;;;;;;;5028261;28;20401;-84
2021/03/04 11:36:22;;;;;;;21.13;16.92;;;;;;;;;;5045138;28;20461;-82
2021/03/04 11:38:48;;;;;;;19.33;17.17;;;;;;;;;;5043141;28;20412;-83
2021/03/04 11:41:14;;;;;;;20.15;16.95;;;;;;;;;;5027425;28;20411;-83
2021/03/04 11:43:40;;;;;;;20.77;17.00;;;;;;;;;;5027012;28;20464;-84
2021/03/04 11:46:06;;;;;;;22.70;16.55;;;;;;;;;;5028400;28;20369;-84
2021/03/04 11:48:32;;;;;;;19.03;16.17;;;;;;;;;;5027598;28;20377;-84
2021/03/04 11:50:58;;;;;;;18.65;15.70;;;;;;;;;;5032022;28;20377;-84
2021/03/04 11:53:24;;;;;;;17.77;15.05;;;;;;;;;;5032632;28;20481;-85
2021/03/04 11:55:50;;;;;;;18.77;15.75;;;;;;;;;;5032368;28;20389;-84
2021/03/04 11:58:16;;;;;;;18.15;14.98;;;;;;;;;;5030222;28;20445;-85
2021/03/04 12:00:42;;;;;;;16.95;15.15;;;;;;;;;;5029309;28;20408;-84
2021/03/04 12:03:08;;;;;;;17.63;15.73;;;;;;;;;;5027966;28;20390;-83
2021/03/04 12:05:34;;;;;;;19.08;15.63;;;;;;;;;;5032574;28;20369;-86
2021/03/04 12:08:00;;;;;;;18.10;14.82;;;;;;;;;;5042099;28;20753;-84
2021/03/04 12:10:26;;;;;;;19.98;15.57;;;;;;;;;;5030015;28;20381;-85
2021/03/04 12:12:52;;;;;;;16.52;14.75;;;;;;;;;;5029747;28;20702;-84
2021/03/04 12:15:18;;;;;;;16.03;14.30;;;;;;;;;;5048702;28;20406;-84
2021/03/04 12:17:45;;;;;;;17.48;14.25;;;;;;;;;;5045642;28;20504;-81
2021/03/04 12:20:11;;;;;;;15.93;14.23;;;;;;;;;;5028820;28;20385;-84
2021/03/04 12:22:37;;;;;;;16.88;15.07;;;;;;;;;;5028032;28;20393;-82
2021/03/04 12:25:06;;;;;;;16.17;14.18;;;;;;;;;;5030291;28;20469;-84
2021/03/04 12:27:33;;;;;;;15.40;13.23;;;;;;;;;;5030540;28;20398;-83
2021/03/04 12:30:00;;;;;;;17.05;13.85;;;;;;;;;;5030622;28;20366;-82
2021/03/04 12:32:26;;;;;;;15.77;14.07;;;;;;;;;;5030179;28;20382;-84
2021/03/04 12:34:52;;;;;;;14.93;13.18;;;;;;;;;;5031899;28;20380;-83
2021/03/04 12:37:18;;;;;;;13.63;12.23;;;;;;;;;;5030654;28;20409;-82
2021/03/04 12:39:44;;;;;;;14.68;12.25;;;;;;;;;;5032103;28;20381;-84
2021/03/04 12:42:10;;;;;;;13.13;11.63;;;;;;;;;;5031738;28;20393;-83
2021/03/04 12:44:37;;;;;;;13.93;12.23;;;;;;;;;;5030174;28;20378;-84
2021/03/04 12:47:03;;;;;;;13.38;11.80;;;;;;;;;;5030150;28;20743;-85
2021/03/04 12:49:29;;;;;;;12.80;11.50;;;;;;;;;;5031464;28;20516;-85
2021/03/04 12:51:54;;;;;;;13.63;12.13;;;;;;;;;;5031477;28;20449;-84
2021/03/04 12:54:20;;;;;;;13.65;11.77;;;;;;;;;;5032941;28;20405;-87
2021/03/04 12:56:46;;;;;;;13.35;11.95;;;;;;;;;;5041365;28;20379;-87
2021/03/04 12:59:12;;;;;;;14.73;13.07;;;;;;;;;;5055153;28;20372;-84
2021/03/04 13:01:39;;;;;;;14.30;11.85;;;;;;;;;;5053623;28;20899;-88
2021/03/04 13:04:05;;;;;;;14.88;12.85;;;;;;;;;;5053870;28;20394;-86
2021/03/04 13:06:33;;;;;;;15.07;12.45;;;;;;;;;;5052305;28;20368;-84
2021/03/04 13:09:01;;;;;;;13.70;12.30;;;;;;;;;;5040626;28;20369;-83
2021/03/04 13:11:28;;;;;;;13.98;12.07;;;;;;;;;;5021832;28;20436;-85
2021/03/04 13:13:54;;;;;;;14.43;12.82;;;;;;;;;;5026325;28;20417;-84
2021/03/04 13:16:20;;;;;;;14.15;12.68;;;;;;;;;;5028563;28;20838;-84
2021/03/04 13:21:50;;;;;;;15.15;13.32;;;;;;;;;;5026707;28;20419;-85
2021/03/04 13:24:16;;;;;;;18.15;13.88;;;;;;;;;;5052177;28;20822;-86
2021/03/04 13:26:42;;;;;;;14.18;12.38;;;;;;;;;;5027615;28;20400;-82
2021/03/04 13:29:08;;;;;;;14.82;12.50;;;;;;;;;;5027284;28;20884;-86
2021/03/04 13:31:34;;;;;;;15.02;13.13;;;;;;;;;;5031238;28;20382;-85
2021/03/04 13:34:01;;;;;;;15.18;13.05;;;;;;;;;;5027961;28;20448;-86
2021/03/04 13:36:27;;;;;;;18.83;14.50;;;;;;;;;;5029576;28;20481;-85
2021/03/04 13:38:53;;;;;;;15.88;12.85;;;;;;;;;;5026439;28;20385;-86
2021/03/04 13:41:19;;;;;;;15.90;13.75;;;;;;;;;;5029655;28;20488;-84
2021/03/04 13:43:46;;;;;;;14.70;12.65;;;;;;;;;;5028128;28;20382;-89
2021/03/04 13:46:12;;;;;;;17.38;14.15;;;;;;;;;;5029111;28;20398;-86
2021/03/04 13:48:38;;;;;;;15.82;14.13;;;;;;;;;;5029016;28;20397;-86
2021/03/04 13:51:07;;;;;;;17.15;13.98;;;;;;;;;;5030899;28;20398;-88
2021/03/04 13:53:34;;;;;;;17.80;14.05;;;;;;;;;;5041675;28;20514;-86
2021/03/04 13:56:00;;;;;;;21.80;15.02;;;;;;;;;;5031861;28;20400;-85
2021/03/04 13:58:27;;;;;;;17.60;14.00;;;;;;;;;;5040788;28;20392;-85
2021/03/04 14:00:53;;;;;;;17.40;13.93;;;;;;;;;;5036620;28;20386;-85
2021/03/04 14:03:19;;;;;;;18.23;14.95;;;;;;;;;;5034683;28;20377;-87
2021/03/04 14:05:45;;;;;;;18.13;14.70;;;;;;;;;;5029349;28;20396;-84
2021/03/04 14:08:11;;;;;;;18.42;15.00;;;;;;;;;;5030609;28;20386;-85
2021/03/04 14:10:37;;;;;;;17.48;13.93;;;;;;;;;;5029293;28;20442;-85
2021/03/04 14:13:03;;;;;;;16.90;14.40;;;;;;;;;;5025196;28;20444;-83
2021/03/04 14:15:29;;;;;;;18.80;15.23;;;;;;;;;;5030305;28;20624;-87
2021/03/04 14:17:55;;;;;;;20.35;15.32;;;;;;;;;;5028166;28;20381;-87